sensor_id;sensor_type;location;lat;lon;timestamp;temperature;humidity
33580;DHT22;19909;43.644;-79.438;2023-01-20T00:01:06;19.70;35.80
33580;DHT22;19909;43.644;-79.438;2023-01-20T00:03:34;19.60;35.60
33580;DHT22;19909;43.644;-79.438;2023-01-20T00:06:01;19.60;35.60
33580;DHT22;19909;43.644;-79.438;2023-01-20T00:08:27;19.60;35.60
33580;DHT22;19909;43.644;-79.438;2023-01-20T00:10:53;19.60;35.60
33580;DHT22;19909;43.644;-79.438;2023-01-20T00:13:19;19.60;35.40
33580;DHT22;19909;43.644;-79.438;2023-01-20T00:15:46;19.60;35.20
33580;DHT22;19909;43.644;-79.438;2023-01-20T00:18:13;19.60;35.30
33580;DHT22;19909;43.644;-79.438;2023-01-20T00:20:39;19.70;35.60
33580;DHT22;19909;43.644;-79.438;2023-01-20T00:23:06;19.70;35.70
33580;DHT22;19909;43.644;-79.438;2023-01-20T00:25:34;19.70;35.70
33580;DHT22;19909;43.644;-79.438;2023-01-20T00:28:01;19.70;35.70
33580;DHT22;19909;43.644;-79.438;2023-01-20T00:30:28;19.70;35.70
33580;DHT22;19909;43.644;-79.438;2023-01-20T00:32:54;19.70;35.60
33580;DHT22;19909;43.644;-79.438;2023-01-20T00:35:20;19.70;35.40
33580;DHT22;19909;43.644;-79.438;2023-01-20T00:37:46;19.70;35.70
33580;DHT22;19909;43.644;-79.438;2023-01-20T00:40:13;19.70;35.40
33580;DHT22;19909;43.644;-79.438;2023-01-20T00:42:39;19.70;35.70
33580;DHT22;19909;43.644;-79.438;2023-01-20T00:45:06;19.70;35.80
33580;DHT22;19909;43.644;-79.438;2023-01-20T00:47:32;19.70;35.70
33580;DHT22;19909;43.644;-79.438;2023-01-20T00:49:58;19.60;35.50
33580;DHT22;19909;43.644;-79.438;2023-01-20T00:52:24;19.70;35.60
33580;DHT22;19909;43.644;-79.438;2023-01-20T00:54:50;19.70;35.70
33580;DHT22;19909;43.644;-79.438;2023-01-20T00:57:17;19.60;35.70
33580;DHT22;19909;43.644;-79.438;2023-01-20T00:59:43;19.60;35.80
33580;DHT22;19909;43.644;-79.438;2023-01-20T01:02:10;19.60;35.90
33580;DHT22;19909;43.644;-79.438;2023-01-20T01:04:36;19.60;35.70
33580;DHT22;19909;43.644;-79.438;2023-01-20T01:07:02;19.60;35.80
33580;DHT22;19909;43.644;-79.438;2023-01-20T01:09:29;19.60;35.80
33580;DHT22;19909;43.644;-79.438;2023-01-20T01:11:55;19.60;35.70
33580;DHT22;19909;43.644;-79.438;2023-01-20T01:14:21;19.60;35.50
33580;DHT22;19909;43.644;-79.438;2023-01-20T01:16:48;19.60;35.40
33580;DHT22;19909;43.644;-79.438;2023-01-20T01:19:17;19.60;35.30
33580;DHT22;19909;43.644;-79.438;2023-01-20T01:21:43;19.70;35.70
33580;DHT22;19909;43.644;-79.438;2023-01-20T01:24:09;19.70;35.90
33580;DHT22;19909;43.644;-79.438;2023-01-20T01:26:35;19.80;35.90
33580;DHT22;19909;43.644;-79.438;2023-01-20T01:29:02;19.70;35.90
33580;DHT22;19909;43.644;-79.438;2023-01-20T01:31:28;19.80;36.00
33580;DHT22;19909;43.644;-79.438;2023-01-20T01:33:54;19.80;35.70
33580;DHT22;19909;43.644;-79.438;2023-01-20T01:36:20;19.80;35.50
33580;DHT22;19909;43.644;-79.438;2023-01-20T01:38:46;19.70;35.50
33580;DHT22;19909;43.644;-79.438;2023-01-20T01:41:14;19.70;35.60
33580;DHT22;19909;43.644;-79.438;2023-01-20T01:44:06;19.70;35.80
33580;DHT22;19909;43.644;-79.438;2023-01-20T01:46:32;19.70;35.90
33580;DHT22;19909;43.644;-79.438;2023-01-20T01:49:13;19.70;35.70
33580;DHT22;19909;43.644;-79.438;2023-01-20T01:51:57;19.70;35.60
33580;DHT22;19909;43.644;-79.438;2023-01-20T01:54:26;19.60;35.60
33580;DHT22;19909;43.644;-79.438;2023-01-20T01:56:55;19.60;35.90
33580;DHT22;19909;43.644;-79.438;2023-01-20T01:59:21;19.60;35.90
33580;DHT22;19909;43.644;-79.438;2023-01-20T02:01:50;19.60;35.90
33580;DHT22;19909;43.644;-79.438;2023-01-20T02:04:19;19.60;35.80
33580;DHT22;19909;43.644;-79.438;2023-01-20T02:06:59;19.60;35.80
33580;DHT22;19909;43.644;-79.438;2023-01-20T02:09:28;19.60;35.80
33580;DHT22;19909;43.644;-79.438;2023-01-20T02:11:59;19.60;35.60
33580;DHT22;19909;43.644;-79.438;2023-01-20T02:14:30;19.60;35.40
33580;DHT22;19909;43.644;-79.438;2023-01-20T02:17:07;19.70;35.50
33580;DHT22;19909;43.644;-79.438;2023-01-20T02:20:04;19.70;35.60
33580;DHT22;19909;43.644;-79.438;2023-01-20T02:31:31;19.80;36.10
33580;DHT22;19909;43.644;-79.438;2023-01-20T02:34:06;19.80;35.70
33580;DHT22;19909;43.644;-79.438;2023-01-20T02:36:59;19.80;35.60
33580;DHT22;19909;43.644;-79.438;2023-01-20T02:42:26;19.70;35.90
33580;DHT22;19909;43.644;-79.438;2023-01-20T02:47:56;19.70;36.00
33580;DHT22;19909;43.644;-79.438;2023-01-20T02:53:14;19.70;35.70
33580;DHT22;19909;43.644;-79.438;2023-01-20T02:55:48;19.70;35.90
33580;DHT22;19909;43.644;-79.438;2023-01-20T02:58:24;19.60;35.50
33580;DHT22;19909;43.644;-79.438;2023-01-20T03:00:57;19.60;35.40
33580;DHT22;19909;43.644;-79.438;2023-01-20T03:03:29;19.70;35.40
33580;DHT22;19909;43.644;-79.438;2023-01-20T03:06:00;19.80;35.80
33580;DHT22;19909;43.644;-79.438;2023-01-20T03:08:30;19.80;35.90
33580;DHT22;19909;43.644;-79.438;2023-01-20T03:11:07;19.80;35.90
33580;DHT22;19909;43.644;-79.438;2023-01-20T03:13:51;19.80;36.00
33580;DHT22;19909;43.644;-79.438;2023-01-20T03:16:23;19.80;36.00
33580;DHT22;19909;43.644;-79.438;2023-01-20T03:18:51;19.80;35.70
33580;DHT22;19909;43.644;-79.438;2023-01-20T03:21:18;19.80;35.60
33580;DHT22;19909;43.644;-79.438;2023-01-20T03:23:51;19.80;35.50
33580;DHT22;19909;43.644;-79.438;2023-01-20T03:26:19;19.80;35.80
33580;DHT22;19909;43.644;-79.438;2023-01-20T03:28:46;19.80;35.90
33580;DHT22;19909;43.644;-79.438;2023-01-20T03:33:56;19.80;35.80
33580;DHT22;19909;43.644;-79.438;2023-01-20T03:36:25;19.80;35.60
33580;DHT22;19909;43.644;-79.438;2023-01-20T03:38:52;19.70;35.70
33580;DHT22;19909;43.644;-79.438;2023-01-20T03:41:35;19.70;35.90
33580;DHT22;19909;43.644;-79.438;2023-01-20T03:46:46;19.70;36.00
33580;DHT22;19909;43.644;-79.438;2023-01-20T03:54:59;19.60;35.90
33580;DHT22;19909;43.644;-79.438;2023-01-20T03:57:33;19.60;36.50
33580;DHT22;19909;43.644;-79.438;2023-01-20T04:00:03;19.60;35.90
33580;DHT22;19909;43.644;-79.438;2023-01-20T04:02:31;19.60;36.00
33580;DHT22;19909;43.644;-79.438;2023-01-20T04:05:00;19.60;36.00
33580;DHT22;19909;43.644;-79.438;2023-01-20T04:07:27;19.60;36.00
33580;DHT22;19909;43.644;-79.438;2023-01-20T04:09:58;19.60;35.80
33580;DHT22;19909;43.644;-79.438;2023-01-20T04:12:25;19.60;35.60
33580;DHT22;19909;43.644;-79.438;2023-01-20T04:14:52;19.60;35.50
33580;DHT22;19909;43.644;-79.438;2023-01-20T04:17:18;19.70;35.60
33580;DHT22;19909;43.644;-79.438;2023-01-20T04:19:45;19.70;36.00
33580;DHT22;19909;43.644;-79.438;2023-01-20T04:25:16;19.70;36.00
33580;DHT22;19909;43.644;-79.438;2023-01-20T04:27:45;19.80;36.10
33580;DHT22;19909;43.644;-79.438;2023-01-20T04:30:12;19.70;36.00
33580;DHT22;19909;43.644;-79.438;2023-01-20T04:32:39;19.70;36.00
33580;DHT22;19909;43.644;-79.438;2023-01-20T04:35:06;19.70;35.70
33580;DHT22;19909;43.644;-79.438;2023-01-20T04:37:32;19.70;35.50
33580;DHT22;19909;43.644;-79.438;2023-01-20T04:39:58;19.70;35.70
33580;DHT22;19909;43.644;-79.438;2023-01-20T04:42:24;19.70;35.90
33580;DHT22;19909;43.644;-79.438;2023-01-20T04:44:51;19.70;36.10
33580;DHT22;19909;43.644;-79.438;2023-01-20T04:47:17;19.70;36.10
33580;DHT22;19909;43.644;-79.438;2023-01-20T04:49:43;19.70;35.80
33580;DHT22;19909;43.644;-79.438;2023-01-20T04:52:10;19.70;35.80
33580;DHT22;19909;43.644;-79.438;2023-01-20T04:54:36;19.70;35.90
33580;DHT22;19909;43.644;-79.438;2023-01-20T04:57:02;19.60;35.80
33580;DHT22;19909;43.644;-79.438;2023-01-20T04:59:29;19.70;35.60
33580;DHT22;19909;43.644;-79.438;2023-01-20T05:01:55;19.70;35.50
33580;DHT22;19909;43.644;-79.438;2023-01-20T05:04:21;19.70;35.40
33580;DHT22;19909;43.644;-79.438;2023-01-20T05:06:47;19.80;35.80
33580;DHT22;19909;43.644;-79.438;2023-01-20T05:09:15;19.80;36.00
33580;DHT22;19909;43.644;-79.438;2023-01-20T05:11:42;19.80;36.00
33580;DHT22;19909;43.644;-79.438;2023-01-20T05:14:09;19.80;36.00
33580;DHT22;19909;43.644;-79.438;2023-01-20T05:16:36;19.80;36.10
33580;DHT22;19909;43.644;-79.438;2023-01-20T05:19:02;19.80;35.80
33580;DHT22;19909;43.644;-79.438;2023-01-20T05:21:28;19.80;35.60
33580;DHT22;19909;43.644;-79.438;2023-01-20T05:23:55;19.80;35.50
33580;DHT22;19909;43.644;-79.438;2023-01-20T05:26:25;19.80;35.80
33580;DHT22;19909;43.644;-79.438;2023-01-20T05:28:51;19.80;36.00
33580;DHT22;19909;43.644;-79.438;2023-01-20T05:31:17;19.80;36.10
33580;DHT22;19909;43.644;-79.438;2023-01-20T05:33:44;19.80;35.80
33580;DHT22;19909;43.644;-79.438;2023-01-20T05:36:11;19.70;35.60
33580;DHT22;19909;43.644;-79.438;2023-01-20T05:38:38;19.70;35.70
33580;DHT22;19909;43.644;-79.438;2023-01-20T05:41:05;19.70;35.90
33580;DHT22;19909;43.644;-79.438;2023-01-20T05:43:32;19.70;36.00
33580;DHT22;19909;43.644;-79.438;2023-01-20T05:45:58;19.70;36.20
33580;DHT22;19909;43.644;-79.438;2023-01-20T05:48:25;19.70;36.00
33580;DHT22;19909;43.644;-79.438;2023-01-20T05:50:51;19.70;35.90
33580;DHT22;19909;43.644;-79.438;2023-01-20T05:53:18;19.70;35.90
33580;DHT22;19909;43.644;-79.438;2023-01-20T05:55:44;19.70;35.90
33580;DHT22;19909;43.644;-79.438;2023-01-20T05:58:11;19.60;35.90
33580;DHT22;19909;43.644;-79.438;2023-01-20T06:00:37;19.60;35.60
33580;DHT22;19909;43.644;-79.438;2023-01-20T06:03:04;19.60;35.50
33580;DHT22;19909;43.644;-79.438;2023-01-20T06:05:30;19.70;35.50
33580;DHT22;19909;43.644;-79.438;2023-01-20T06:07:57;19.70;35.80
33580;DHT22;19909;43.644;-79.438;2023-01-20T06:10:24;19.80;36.00
33580;DHT22;19909;43.644;-79.438;2023-01-20T06:12:56;19.80;36.10
33580;DHT22;19909;43.644;-79.438;2023-01-20T06:15:23;19.80;36.10
33580;DHT22;19909;43.644;-79.438;2023-01-20T06:17:50;19.80;36.00
33580;DHT22;19909;43.644;-79.438;2023-01-20T06:20:17;19.80;35.70
33580;DHT22;19909;43.644;-79.438;2023-01-20T06:22:43;19.80;35.60
33580;DHT22;19909;43.644;-79.438;2023-01-20T06:25:10;19.80;35.70
33580;DHT22;19909;43.644;-79.438;2023-01-20T06:27:36;19.80;36.00
33580;DHT22;19909;43.644;-79.438;2023-01-20T06:30:04;19.80;36.10
33580;DHT22;19909;43.644;-79.438;2023-01-20T06:32:30;19.80;36.00
33580;DHT22;19909;43.644;-79.438;2023-01-20T06:34:56;19.70;35.70
33580;DHT22;19909;43.644;-79.438;2023-01-20T06:37:23;19.70;35.70
33580;DHT22;19909;43.644;-79.438;2023-01-20T06:39:49;19.70;36.20
33580;DHT22;19909;43.644;-79.438;2023-01-20T06:42:15;19.70;36.00
33580;DHT22;19909;43.644;-79.438;2023-01-20T06:44:41;19.70;36.20
33580;DHT22;19909;43.644;-79.438;2023-01-20T06:47:07;19.70;36.10
33580;DHT22;19909;43.644;-79.438;2023-01-20T06:49:34;19.70;35.70
33580;DHT22;19909;43.644;-79.438;2023-01-20T06:52:01;19.70;35.60
33580;DHT22;19909;43.644;-79.438;2023-01-20T06:54:27;19.70;35.50
33580;DHT22;19909;43.644;-79.438;2023-01-20T06:56:53;19.60;35.40
33580;DHT22;19909;43.644;-79.438;2023-01-20T06:59:19;19.70;35.40
33580;DHT22;19909;43.644;-79.438;2023-01-20T07:01:45;19.70;35.30
33580;DHT22;19909;43.644;-79.438;2023-01-20T07:04:14;19.80;35.30
33580;DHT22;19909;43.644;-79.438;2023-01-20T07:06:41;19.80;35.60
33580;DHT22;19909;43.644;-79.438;2023-01-20T07:09:10;19.80;35.80
33580;DHT22;19909;43.644;-79.438;2023-01-20T07:11:37;19.90;35.90
33580;DHT22;19909;43.644;-79.438;2023-01-20T07:14:04;19.90;35.90
33580;DHT22;19909;43.644;-79.438;2023-01-20T07:16:31;19.90;35.80
33580;DHT22;19909;43.644;-79.438;2023-01-20T07:18:58;19.90;35.80
33580;DHT22;19909;43.644;-79.438;2023-01-20T07:21:24;19.90;35.60
33580;DHT22;19909;43.644;-79.438;2023-01-20T07:23:51;19.90;35.50
33580;DHT22;19909;43.644;-79.438;2023-01-20T07:26:22;19.80;35.60
33580;DHT22;19909;43.644;-79.438;2023-01-20T07:28:51;19.80;35.90
33580;DHT22;19909;43.644;-79.438;2023-01-20T07:31:21;19.80;35.80
33580;DHT22;19909;43.644;-79.438;2023-01-20T07:33:48;19.80;35.60
33580;DHT22;19909;43.644;-79.438;2023-01-20T07:36:15;19.80;35.50
33580;DHT22;19909;43.644;-79.438;2023-01-20T07:38:42;19.80;35.50
33580;DHT22;19909;43.644;-79.438;2023-01-20T07:41:11;19.80;35.90
33580;DHT22;19909;43.644;-79.438;2023-01-20T07:43:44;19.80;36.00
33580;DHT22;19909;43.644;-79.438;2023-01-20T07:46:11;19.70;36.10
33580;DHT22;19909;43.644;-79.438;2023-01-20T07:48:38;19.70;35.80
33580;DHT22;19909;43.644;-79.438;2023-01-20T07:51:07;19.70;35.60
33580;DHT22;19909;43.644;-79.438;2023-01-20T07:56:04;19.70;35.90
33580;DHT22;19909;43.644;-79.438;2023-01-20T07:58:31;19.70;36.00
33580;DHT22;19909;43.644;-79.438;2023-01-20T08:01:05;19.70;36.10
33580;DHT22;19909;43.644;-79.438;2023-01-20T08:03:32;19.70;35.70
33580;DHT22;19909;43.644;-79.438;2023-01-20T08:06:04;19.60;35.50
33580;DHT22;19909;43.644;-79.438;2023-01-20T08:08:32;19.70;35.50
33580;DHT22;19909;43.644;-79.438;2023-01-20T08:10:59;19.70;35.70
33580;DHT22;19909;43.644;-79.438;2023-01-20T08:13:27;19.80;36.00
33580;DHT22;19909;43.644;-79.438;2023-01-20T08:15:54;19.80;36.10
33580;DHT22;19909;43.644;-79.438;2023-01-20T08:18:20;19.80;35.60
33580;DHT22;19909;43.644;-79.438;2023-01-20T08:20:47;19.80;35.60
33580;DHT22;19909;43.644;-79.438;2023-01-20T08:23:13;19.80;35.50
33580;DHT22;19909;43.644;-79.438;2023-01-20T08:25:39;19.80;35.70
33580;DHT22;19909;43.644;-79.438;2023-01-20T08:28:06;19.80;35.90
33580;DHT22;19909;43.644;-79.438;2023-01-20T08:30:32;19.80;36.00
33580;DHT22;19909;43.644;-79.438;2023-01-20T08:32:58;19.70;35.80
33580;DHT22;19909;43.644;-79.438;2023-01-20T08:35:25;19.70;35.50
33580;DHT22;19909;43.644;-79.438;2023-01-20T08:37:51;19.70;35.60
33580;DHT22;19909;43.644;-79.438;2023-01-20T08:40:18;19.70;35.70
33580;DHT22;19909;43.644;-79.438;2023-01-20T08:42:44;19.70;35.50
33580;DHT22;19909;43.644;-79.438;2023-01-20T08:45:11;19.70;35.50
33580;DHT22;19909;43.644;-79.438;2023-01-20T08:47:39;19.80;35.40
33580;DHT22;19909;43.644;-79.438;2023-01-20T08:50:10;19.80;35.40
33580;DHT22;19909;43.644;-79.438;2023-01-20T08:52:37;19.90;35.90
33580;DHT22;19909;43.644;-79.438;2023-01-20T08:55:04;19.90;36.00
33580;DHT22;19909;43.644;-79.438;2023-01-20T08:57:30;19.90;36.00
33580;DHT22;19909;43.644;-79.438;2023-01-20T08:59:56;19.90;36.00
33580;DHT22;19909;43.644;-79.438;2023-01-20T09:02:23;19.90;36.00
33580;DHT22;19909;43.644;-79.438;2023-01-20T09:04:49;19.80;35.60
33580;DHT22;19909;43.644;-79.438;2023-01-20T09:07:17;19.90;35.50
33580;DHT22;19909;43.644;-79.438;2023-01-20T09:09:44;19.90;35.60
33580;DHT22;19909;43.644;-79.438;2023-01-20T09:12:10;19.80;35.80
33580;DHT22;19909;43.644;-79.438;2023-01-20T09:14:37;19.80;35.90
33580;DHT22;19909;43.644;-79.438;2023-01-20T09:17:04;19.90;36.10
33580;DHT22;19909;43.644;-79.438;2023-01-20T09:19:31;19.80;35.60
33580;DHT22;19909;43.644;-79.438;2023-01-20T09:21:57;19.80;35.60
33580;DHT22;19909;43.644;-79.438;2023-01-20T09:24:23;19.80;35.60
33580;DHT22;19909;43.644;-79.438;2023-01-20T09:26:49;19.80;36.00
33580;DHT22;19909;43.644;-79.438;2023-01-20T09:29:18;19.80;36.00
33580;DHT22;19909;43.644;-79.438;2023-01-20T09:31:50;19.70;36.10
33580;DHT22;19909;43.644;-79.438;2023-01-20T09:34:17;19.80;35.90
33580;DHT22;19909;43.644;-79.438;2023-01-20T09:36:53;19.70;35.80
33580;DHT22;19909;43.644;-79.438;2023-01-20T09:39:19;19.70;35.80
33580;DHT22;19909;43.644;-79.438;2023-01-20T09:45:44;19.70;36.10
33580;DHT22;19909;43.644;-79.438;2023-01-20T09:48:36;19.70;36.10
33580;DHT22;19909;43.644;-79.438;2023-01-20T09:54:41;19.60;35.80
33580;DHT22;19909;43.644;-79.438;2023-01-20T09:57:10;19.60;35.70
33580;DHT22;19909;43.644;-79.438;2023-01-20T09:59:45;19.70;35.60
33580;DHT22;19909;43.644;-79.438;2023-01-20T10:02:19;19.70;35.50
33580;DHT22;19909;43.644;-79.438;2023-01-20T10:04:51;19.80;35.90
33580;DHT22;19909;43.644;-79.438;2023-01-20T10:07:28;19.80;36.10
33580;DHT22;19909;43.644;-79.438;2023-01-20T10:10:35;19.90;36.20
33580;DHT22;19909;43.644;-79.438;2023-01-20T10:13:11;19.80;36.20
33580;DHT22;19909;43.644;-79.438;2023-01-20T10:15:42;19.80;36.10
33580;DHT22;19909;43.644;-79.438;2023-01-20T10:18:18;19.80;35.80
33580;DHT22;19909;43.644;-79.438;2023-01-20T10:23:33;19.80;35.60
33580;DHT22;19909;43.644;-79.438;2023-01-20T10:29:16;19.80;36.10
33580;DHT22;19909;43.644;-79.438;2023-01-20T10:31:51;19.80;36.20
33580;DHT22;19909;43.644;-79.438;2023-01-20T10:34:19;19.80;35.80
33580;DHT22;19909;43.644;-79.438;2023-01-20T10:37:01;19.80;35.70
33580;DHT22;19909;43.644;-79.438;2023-01-20T10:39:36;19.70;35.70
33580;DHT22;19909;43.644;-79.438;2023-01-20T10:42:07;19.80;36.10
33580;DHT22;19909;43.644;-79.438;2023-01-20T10:44:34;19.70;36.20
33580;DHT22;19909;43.644;-79.438;2023-01-20T10:55:35;19.70;36.60
33580;DHT22;19909;43.644;-79.438;2023-01-20T11:01:17;19.70;36.20
33580;DHT22;19909;43.644;-79.438;2023-01-20T11:03:47;19.70;36.20
33580;DHT22;19909;43.644;-79.438;2023-01-20T11:06:18;19.60;36.00
33580;DHT22;19909;43.644;-79.438;2023-01-20T11:08:46;19.60;35.90
33580;DHT22;19909;43.644;-79.438;2023-01-20T11:11:19;19.60;35.80
33580;DHT22;19909;43.644;-79.438;2023-01-20T11:13:46;19.70;35.70
33580;DHT22;19909;43.644;-79.438;2023-01-20T11:16:26;19.70;35.60
33580;DHT22;19909;43.644;-79.438;2023-01-20T11:19:01;19.80;36.00
33580;DHT22;19909;43.644;-79.438;2023-01-20T11:21:30;19.80;36.20
33580;DHT22;19909;43.644;-79.438;2023-01-20T11:23:59;19.80;36.20
33580;DHT22;19909;43.644;-79.438;2023-01-20T11:26:33;19.80;36.30
33580;DHT22;19909;43.644;-79.438;2023-01-20T11:29:04;19.80;36.20
33580;DHT22;19909;43.644;-79.438;2023-01-20T11:31:52;19.80;36.20
33580;DHT22;19909;43.644;-79.438;2023-01-20T11:34:26;19.80;35.80
33580;DHT22;19909;43.644;-79.438;2023-01-20T11:39:58;19.80;35.70
33580;DHT22;19909;43.644;-79.438;2023-01-20T11:42:27;19.80;36.10
33580;DHT22;19909;43.644;-79.438;2023-01-20T11:45:03;19.80;36.30
33580;DHT22;19909;43.644;-79.438;2023-01-20T11:47:34;19.70;36.10
33580;DHT22;19909;43.644;-79.438;2023-01-20T11:55:20;19.70;35.80
33580;DHT22;19909;43.644;-79.438;2023-01-20T11:57:57;19.70;35.70
33580;DHT22;19909;43.644;-79.438;2023-01-20T12:00:42;19.70;35.60
33580;DHT22;19909;43.644;-79.438;2023-01-20T12:08:28;19.90;36.10
33580;DHT22;19909;43.644;-79.438;2023-01-20T12:11:00;19.90;36.20
33580;DHT22;19909;43.644;-79.438;2023-01-20T12:13:40;19.90;36.30
33580;DHT22;19909;43.644;-79.438;2023-01-20T12:16:27;19.90;36.20
33580;DHT22;19909;43.644;-79.438;2023-01-20T12:19:00;19.90;36.00
33580;DHT22;19909;43.644;-79.438;2023-01-20T12:21:34;19.90;35.80
33580;DHT22;19909;43.644;-79.438;2023-01-20T12:24:19;19.90;35.70
33580;DHT22;19909;43.644;-79.438;2023-01-20T12:26:47;19.90;36.00
33580;DHT22;19909;43.644;-79.438;2023-01-20T12:29:29;19.80;36.10
33580;DHT22;19909;43.644;-79.438;2023-01-20T12:31:59;19.80;36.20
33580;DHT22;19909;43.644;-79.438;2023-01-20T12:34:29;19.80;35.80
33580;DHT22;19909;43.644;-79.438;2023-01-20T12:37:07;19.80;35.80
33580;DHT22;19909;43.644;-79.438;2023-01-20T12:53:29;19.70;35.90
33580;DHT22;19909;43.644;-79.438;2023-01-20T12:59:00;19.70;35.70
33580;DHT22;19909;43.644;-79.438;2023-01-20T13:07:19;19.90;36.20
33580;DHT22;19909;43.644;-79.438;2023-01-20T13:12:40;19.90;36.40
33580;DHT22;19909;43.644;-79.438;2023-01-20T13:15:26;19.90;36.30
33580;DHT22;19909;43.644;-79.438;2023-01-20T13:20:51;19.90;35.90
33580;DHT22;19909;43.644;-79.438;2023-01-20T13:23:23;19.90;35.70
33580;DHT22;19909;43.644;-79.438;2023-01-20T13:25:50;19.80;35.80
33580;DHT22;19909;43.644;-79.438;2023-01-20T13:28:26;19.90;36.10
33580;DHT22;19909;43.644;-79.438;2023-01-20T13:30:54;19.80;36.30
33580;DHT22;19909;43.644;-79.438;2023-01-20T13:33:40;19.80;35.80
33580;DHT22;19909;43.644;-79.438;2023-01-20T13:36:18;19.80;35.70
33580;DHT22;19909;43.644;-79.438;2023-01-20T13:38:47;19.80;35.70
33580;DHT22;19909;43.644;-79.438;2023-01-20T13:47:00;19.80;36.30
33580;DHT22;19909;43.644;-79.438;2023-01-20T13:49:31;19.70;35.90
33580;DHT22;19909;43.644;-79.438;2023-01-20T13:52:09;19.70;35.80
33580;DHT22;19909;43.644;-79.438;2023-01-20T13:54:41;19.70;35.70
33580;DHT22;19909;43.644;-79.438;2023-01-20T13:57:31;19.70;36.10
33580;DHT22;19909;43.644;-79.438;2023-01-20T13:59:58;19.70;36.30
33580;DHT22;19909;43.644;-79.438;2023-01-20T14:02:26;19.70;36.30
33580;DHT22;19909;43.644;-79.438;2023-01-20T14:04:52;19.70;36.00
33580;DHT22;19909;43.644;-79.438;2023-01-20T14:07:25;19.70;36.10
33580;DHT22;19909;43.644;-79.438;2023-01-20T14:09:53;19.70;35.80
33580;DHT22;19909;43.644;-79.438;2023-01-20T14:12:20;19.70;35.70
33580;DHT22;19909;43.644;-79.438;2023-01-20T14:14:46;19.70;35.60
33580;DHT22;19909;43.644;-79.438;2023-01-20T14:17:21;19.70;35.50
33580;DHT22;19909;43.644;-79.438;2023-01-20T14:19:49;19.80;36.00
33580;DHT22;19909;43.644;-79.438;2023-01-20T14:22:24;19.80;36.20
33580;DHT22;19909;43.644;-79.438;2023-01-20T14:24:53;19.80;36.10
33580;DHT22;19909;43.644;-79.438;2023-01-20T14:27:26;19.80;36.30
33580;DHT22;19909;43.644;-79.438;2023-01-20T14:29:55;19.80;36.20
33580;DHT22;19909;43.644;-79.438;2023-01-20T14:32:31;19.80;36.00
33580;DHT22;19909;43.644;-79.438;2023-01-20T14:34:59;19.80;35.70
33580;DHT22;19909;43.644;-79.438;2023-01-20T14:37:37;19.80;35.60
33580;DHT22;19909;43.644;-79.438;2023-01-20T14:42:34;19.80;36.00
33580;DHT22;19909;43.644;-79.438;2023-01-20T14:45:01;19.80;36.10
33580;DHT22;19909;43.644;-79.438;2023-01-20T14:47:28;19.80;36.10
33580;DHT22;19909;43.644;-79.438;2023-01-20T14:49:56;19.80;35.60
33580;DHT22;19909;43.644;-79.438;2023-01-20T14:52:26;19.80;35.50
33580;DHT22;19909;43.644;-79.438;2023-01-20T14:54:54;19.70;35.50
33580;DHT22;19909;43.644;-79.438;2023-01-20T15:00:18;19.80;35.40
33580;DHT22;19909;43.644;-79.438;2023-01-20T15:03:14;19.80;35.30
33580;DHT22;19909;43.644;-79.438;2023-01-20T15:08:26;19.90;35.90
33580;DHT22;19909;43.644;-79.438;2023-01-20T15:16:24;19.90;35.80
33580;DHT22;19909;43.644;-79.438;2023-01-20T15:21:35;19.90;35.60
33580;DHT22;19909;43.644;-79.438;2023-01-20T15:24:31;19.90;35.50
33580;DHT22;19909;43.644;-79.438;2023-01-20T15:27:17;19.80;35.70
33580;DHT22;19909;43.644;-79.438;2023-01-20T15:29:59;19.80;36.00
33580;DHT22;19909;43.644;-79.438;2023-01-20T15:32:26;19.80;35.80
33580;DHT22;19909;43.644;-79.438;2023-01-20T15:34:52;19.80;35.50
33580;DHT22;19909;43.644;-79.438;2023-01-20T15:37:19;19.80;35.50
33580;DHT22;19909;43.644;-79.438;2023-01-20T15:39:45;19.80;35.50
33580;DHT22;19909;43.644;-79.438;2023-01-20T15:42:12;19.80;35.90
33580;DHT22;19909;43.644;-79.438;2023-01-20T15:44:40;19.80;36.00
33580;DHT22;19909;43.644;-79.438;2023-01-20T15:47:33;19.70;36.00
33580;DHT22;19909;43.644;-79.438;2023-01-20T15:49:59;19.70;35.50
33580;DHT22;19909;43.644;-79.438;2023-01-20T15:52:25;19.70;35.40
33580;DHT22;19909;43.644;-79.438;2023-01-20T15:54:52;19.70;35.50
33580;DHT22;19909;43.644;-79.438;2023-01-20T15:57:18;19.70;35.90
33580;DHT22;19909;43.644;-79.438;2023-01-20T15:59:44;19.70;36.00
33580;DHT22;19909;43.644;-79.438;2023-01-20T16:02:16;19.70;36.00
33580;DHT22;19909;43.644;-79.438;2023-01-20T16:04:43;19.70;35.50
33580;DHT22;19909;43.644;-79.438;2023-01-20T16:07:14;19.70;35.50
33580;DHT22;19909;43.644;-79.438;2023-01-20T16:09:41;19.60;35.40
33580;DHT22;19909;43.644;-79.438;2023-01-20T16:12:15;19.70;35.30
33580;DHT22;19909;43.644;-79.438;2023-01-20T16:14:42;19.70;35.20
33580;DHT22;19909;43.644;-79.438;2023-01-20T16:17:18;19.80;35.50
33580;DHT22;19909;43.644;-79.438;2023-01-20T16:19:46;19.80;35.80
33580;DHT22;19909;43.644;-79.438;2023-01-20T16:22:12;19.80;36.00
33580;DHT22;19909;43.644;-79.438;2023-01-20T16:24:39;19.80;36.00
33580;DHT22;19909;43.644;-79.438;2023-01-20T16:27:25;19.80;36.00
33580;DHT22;19909;43.644;-79.438;2023-01-20T16:29:52;19.80;36.00
33580;DHT22;19909;43.644;-79.438;2023-01-20T16:32:19;19.80;35.80
33580;DHT22;19909;43.644;-79.438;2023-01-20T16:34:45;19.80;35.50
33580;DHT22;19909;43.644;-79.438;2023-01-20T16:37:13;19.80;35.40
33580;DHT22;19909;43.644;-79.438;2023-01-20T16:39:39;19.80;35.50
33580;DHT22;19909;43.644;-79.438;2023-01-20T16:42:05;19.80;35.80
33580;DHT22;19909;43.644;-79.438;2023-01-20T16:44:31;19.80;36.00
33580;DHT22;19909;43.644;-79.438;2023-01-20T16:46:58;19.80;36.00
33580;DHT22;19909;43.644;-79.438;2023-01-20T16:49:25;19.80;35.40
33580;DHT22;19909;43.644;-79.438;2023-01-20T16:51:51;19.70;35.30
33580;DHT22;19909;43.644;-79.438;2023-01-20T16:54:17;19.70;35.20
33580;DHT22;19909;43.644;-79.438;2023-01-20T16:56:43;19.70;35.20
33580;DHT22;19909;43.644;-79.438;2023-01-20T16:59:09;19.70;35.20
33580;DHT22;19909;43.644;-79.438;2023-01-20T17:01:35;19.80;35.10
33580;DHT22;19909;43.644;-79.438;2023-01-20T17:04:03;19.80;35.10
33580;DHT22;19909;43.644;-79.438;2023-01-20T17:06:33;19.90;35.40
33580;DHT22;19909;43.644;-79.438;2023-01-20T17:09:02;19.90;35.60
33580;DHT22;19909;43.644;-79.438;2023-01-20T17:11:31;19.90;35.80
33580;DHT22;19909;43.644;-79.438;2023-01-20T17:14:00;19.90;35.70
33580;DHT22;19909;43.644;-79.438;2023-01-20T17:16:27;19.90;35.70
33580;DHT22;19909;43.644;-79.438;2023-01-20T17:18:56;19.90;35.60
33580;DHT22;19909;43.644;-79.438;2023-01-20T17:21:25;19.90;35.40